Time;durP1;ratioP1;P1;durP2;ratioP2;P2;SDS_P1;SDS_P2;PMS_P1;PMS_P2;Temp;Humidity;BMP_temperature;BMP_pressure;BME280_temperature;BME280_humidity;BME280_pressure;Samples;Min_cycle;Max_cycle;Signal;HPM_P1;HPM_P2
2022/10/15 00:01:46;;;;;;;2.60;2.40;;;19.20;61.30;;;;;;4965923;28;20078;-68
2022/10/15 00:04:12;;;;;;;2.70;2.45;;;19.20;61.30;;;;;;4965913;29;20088;-68
2022/10/15 00:06:38;;;;;;;2.85;2.60;;;19.30;61.30;;;;;;4965877;29;20015;-67
2022/10/15 00:09:04;;;;;;;2.90;2.28;;;19.20;61.30;;;;;;4965817;29;20074;-66
2022/10/15 00:11:30;;;;;;;2.75;2.35;;;19.20;61.30;;;;;;4965770;29;20031;-68
2022/10/15 00:13:58;;;;;;;2.80;2.50;;;19.20;61.30;;;;;;4965652;28;20034;-68
2022/10/15 00:16:26;;;;;;;2.83;2.53;;;19.20;61.30;;;;;;4965679;28;20310;-67
2022/10/15 00:18:55;;;;;;;2.75;2.47;;;19.20;61.30;;;;;;4965680;29;20038;-67
2022/10/15 00:21:21;;;;;;;2.58;2.38;;;19.20;61.30;;;;;;4965601;29;20018;-68
2022/10/15 00:23:47;;;;;;;2.72;2.42;;;19.20;61.30;;;;;;4965594;29;20023;-68
2022/10/15 00:26:17;;;;;;;3.42;2.45;;;19.20;61.30;;;;;;4965568;29;20023;-67
2022/10/15 00:28:43;;;;;;;2.42;2.22;;;19.20;61.30;;;;;;4965535;29;20086;-68
2022/10/15 00:31:12;;;;;;;2.35;2.15;;;19.20;61.30;;;;;;4980513;28;20019;-67
2022/10/15 00:33:38;;;;;;;;;;;19.20;61.40;;;;;;4965633;29;20394;-68
2022/10/15 00:36:10;;;;;;;2.72;2.40;;;19.20;61.30;;;;;;4965365;28;19914;-66
2022/10/15 00:38:36;;;;;;;3.28;2.60;;;19.20;61.30;;;;;;4965420;29;20302;-67
2022/10/15 00:41:04;;;;;;;2.97;2.13;;;19.20;61.30;;;;;;4980349;28;20073;-67
2022/10/15 00:43:43;;;;;;;2.50;2.30;;;19.20;61.30;;;;;;4964181;29;20025;-67
2022/10/15 00:46:32;;;;;;;2.58;2.38;;;19.20;61.30;;;;;;4965312;29;20090;-68
2022/10/15 00:49:03;;;;;;;2.40;2.20;;;19.20;61.30;;;;;;4967618;28;20138;-66
2022/10/15 00:51:38;;;;;;;3.10;2.78;;;19.20;61.30;;;;;;4965305;29;20284;-68
2022/10/15 00:54:04;;;;;;;2.95;2.58;;;19.20;61.30;;;;;;4980242;28;20067;-67
2022/10/15 00:56:31;;;;;;;2.33;2.13;;;19.20;61.30;;;;;;4965158;29;20311;-67
2022/10/15 00:58:57;;;;;;;2.58;2.38;;;19.20;61.30;;;;;;4965211;29;20028;-68
2022/10/15 01:01:24;;;;;;;2.42;2.10;;;19.20;61.30;;;;;;4965176;29;20015;-67
2022/10/15 01:03:54;;;;;;;2.75;2.40;;;19.20;61.30;;;;;;4965119;29;20023;-67
2022/10/15 01:06:20;;;;;;;2.70;2.50;;;19.20;61.40;;;;;;4965392;29;20246;-67
2022/10/15 01:08:46;;;;;;;2.63;2.42;;;19.20;61.40;;;;;;4965099;29;20080;-67
2022/10/15 01:11:26;;;;;;;3.65;2.75;;;19.20;61.40;;;;;;4965094;29;20070;-68
2022/10/15 01:14:29;;;;;;;2.58;2.30;;;19.20;61.30;;;;;;4965080;29;20203;-68
2022/10/15 01:16:59;;;;;;;2.30;2.10;;;19.20;61.40;;;;;;4964961;29;20071;-67
2022/10/15 01:19:43;;;;;;;2.53;2.33;;;19.10;61.30;;;;;;4965032;29;20043;-68
2022/10/15 01:22:24;;;;;;;2.80;2.47;;;19.20;61.40;;;;;;4964996;29;20108;-68
2022/10/15 01:25:08;;;;;;;3.33;2.80;;;19.10;61.30;;;;;;4965533;28;20023;-68
2022/10/15 01:27:50;;;;;;;2.58;2.38;;;19.20;61.40;;;;;;4968735;29;20307;-67
2022/10/15 01:30:24;;;;;;;2.65;2.17;;;19.10;61.30;;;;;;4968719;29;20094;-67
2022/10/15 01:32:55;;;;;;;2.63;2.42;;;19.10;61.30;;;;;;4983665;28;20216;-67
2022/10/15 01:35:50;;;;;;;2.40;2.20;;;19.10;61.30;;;;;;4968479;29;20118;-69
2022/10/15 01:38:21;;;;;;;2.28;2.08;;;19.10;61.40;;;;;;4968555;29;20019;-67
2022/10/15 01:41:11;;;;;;;3.58;2.85;;;19.10;61.40;;;;;;4968505;29;20022;-67
2022/10/15 01:43:45;;;;;;;2.42;2.22;;;19.10;61.40;;;;;;4968474;29;20026;-67
2022/10/15 01:46:20;;;;;;;2.83;2.30;;;19.10;61.40;;;;;;4968400;29;20042;-67
2022/10/15 01:48:48;;;;;;;2.47;2.22;;;19.10;61.40;;;;;;4968383;29;20083;-67
2022/10/15 01:51:16;;;;;;;2.55;2.33;;;19.10;61.30;;;;;;4968306;29;20086;-67
2022/10/15 01:53:43;;;;;;;2.92;2.63;;;19.10;61.30;;;;;;4968298;28;20103;-67
2022/10/15 01:56:13;;;;;;;2.65;2.35;;;19.10;61.40;;;;;;4967044;29;20315;-69
2022/10/15 01:58:42;;;;;;;2.33;2.13;;;19.10;61.30;;;;;;4968174;29;20223;-69
2022/10/15 02:01:07;;;;;;;;;;;19.10;61.40;;;;;;4983563;28;20019;-68
2022/10/15 02:03:49;;;;;;;2.33;2.13;;;19.10;61.30;;;;;;4967014;28;19926;-68
2022/10/15 02:06:33;;;;;;;2.60;2.40;;;19.10;61.30;;;;;;4968113;28;20029;-68
2022/10/15 02:09:09;;;;;;;2.25;2.05;;;19.10;61.30;;;;;;4968074;29;20034;-69
2022/10/15 02:11:54;;;;;;;2.53;2.33;;;19.10;61.30;;;;;;4967999;29;20073;-69
2022/10/15 02:14:35;;;;;;;2.70;2.47;;;19.10;61.30;;;;;;4967959;28;20023;-68
2022/10/15 02:17:10;;;;;;;2.83;2.50;;;19.10;61.30;;;;;;4967805;29;20023;-68
2022/10/15 02:19:50;;;;;;;3.00;2.70;;;19.10;61.30;;;;;;4967823;29;20022;-67
2022/10/15 02:22:27;;;;;;;2.50;2.28;;;19.10;61.30;;;;;;4967781;29;20039;-67
2022/10/15 02:24:57;;;;;;;2.97;2.67;;;19.10;61.30;;;;;;4967802;29;20015;-68
2022/10/15 02:27:27;;;;;;;2.38;2.17;;;19.10;61.30;;;;;;4967981;29;20035;-68
2022/10/15 02:29:54;;;;;;;2.35;2.13;;;19.10;61.30;;;;;;4967641;29;20019;-67
2022/10/15 02:32:22;;;;;;;2.28;1.98;;;19.10;61.40;;;;;;4967580;28;20027;-67
2022/10/15 02:34:49;;;;;;;3.55;2.67;;;19.10;61.30;;;;;;4967397;29;20039;-66
2022/10/15 02:37:19;;;;;;;2.72;2.53;;;19.10;61.30;;;;;;4966171;28;20031;-67
2022/10/15 02:39:45;;;;;;;2.35;2.03;;;19.10;61.30;;;;;;4967497;29;20214;-67
2022/10/15 02:42:11;;;;;;;2.50;2.30;;;19.10;61.30;;;;;;4967432;29;20035;-67
2022/10/15 02:44:37;;;;;;;2.60;2.40;;;19.10;61.30;;;;;;4967359;29;20045;-68
2022/10/15 02:47:03;;;;;;;2.05;1.90;;;19.10;61.40;;;;;;4967287;29;20094;-67
2022/10/15 02:49:28;;;;;;;3.42;3.13;;;19.10;61.40;;;;;;4967307;29;20051;-67
2022/10/15 02:51:55;;;;;;;2.33;2.13;;;19.10;61.40;;;;;;4967233;29;20042;-69
2022/10/15 02:54:21;;;;;;;2.85;2.25;;;19.10;61.40;;;;;;4967190;29;20029;-67
2022/10/15 02:56:47;;;;;;;2.63;2.42;;;19.10;61.40;;;;;;4967076;28;20019;-68
2022/10/15 02:59:12;;;;;;;2.95;2.45;;;19.10;61.40;;;;;;4967127;29;20023;-68
2022/10/15 03:01:38;;;;;;;2.58;2.38;;;19.10;61.40;;;;;;4967066;29;20019;-67
2022/10/15 03:04:04;;;;;;;2.88;2.67;;;19.10;61.30;;;;;;4966995;29;20027;-67
2022/10/15 03:06:29;;;;;;;3.28;2.33;;;19.10;61.40;;;;;;4966994;28;20330;-67
2022/10/15 03:08:55;;;;;;;2.92;2.63;;;19.10;61.40;;;;;;4966903;29;20030;-66
2022/10/15 03:11:21;;;;;;;2.65;2.40;;;19.10;61.30;;;;;;4966887;28;20034;-67
2022/10/15 03:13:47;;;;;;;2.72;2.40;;;19.10;61.40;;;;;;4966862;29;20464;-68
2022/10/15 03:16:12;;;;;;;3.00;2.47;;;19.10;61.30;;;;;;4966696;29;20023;-68
2022/10/15 03:18:38;;;;;;;2.80;2.22;;;19.10;61.30;;;;;;4966709;29;20247;-68
2022/10/15 03:21:05;;;;;;;3.55;2.35;;;19.10;61.30;;;;;;4966678;29;20019;-67
2022/10/15 03:23:31;;;;;;;3.05;2.75;;;19.10;61.40;;;;;;4966638;29;20038;-67
2022/10/15 03:25:56;;;;;;;2.78;2.58;;;19.10;61.40;;;;;;4966610;29;20202;-67
2022/10/15 03:28:22;;;;;;;3.22;2.20;;;19.10;61.40;;;;;;4966538;29;20027;-67
2022/10/15 03:30:48;;;;;;;2.90;2.60;;;19.00;61.30;;;;;;4966543;28;20038;-68
2022/10/15 03:33:14;;;;;;;2.60;1.92;;;19.00;61.30;;;;;;4966301;29;20370;-66
2022/10/15 03:35:40;;;;;;;2.58;2.33;;;19.10;61.40;;;;;;4966365;29;20100;-68
2022/10/15 03:38:06;;;;;;;2.33;2.13;;;19.00;61.30;;;;;;4966340;29;20254;-67
2022/10/15 03:40:33;;;;;;;2.85;2.58;;;19.00;61.30;;;;;;4966322;29;20023;-68
2022/10/15 03:42:58;;;;;;;2.38;2.17;;;19.00;61.40;;;;;;4966260;29;20023;-68
2022/10/15 03:45:25;;;;;;;3.28;2.55;;;19.00;61.40;;;;;;4966267;28;20087;-67
2022/10/15 03:47:51;;;;;;;2.28;2.00;;;19.00;62.00;;;;;;4965863;28;20023;-68
2022/10/15 03:50:17;;;;;;;2.75;2.55;;;19.00;61.40;;;;;;4966175;29;20023;-67
2022/10/15 03:52:43;;;;;;;2.55;2.30;;;19.00;61.30;;;;;;4966104;29;20019;-67
2022/10/15 03:55:09;;;;;;;2.40;2.20;;;19.00;61.30;;;;;;4966095;29;20105;-68
2022/10/15 03:57:36;;;;;;;2.30;2.10;;;19.00;61.30;;;;;;4965969;29;20031;-68
2022/10/15 04:00:03;;;;;;;2.22;2.00;;;19.00;61.30;;;;;;4965983;29;20086;-67
2022/10/15 04:02:30;;;;;;;2.58;2.38;;;19.00;61.30;;;;;;4965998;28;20021;-68
2022/10/15 04:04:56;;;;;;;2.30;2.10;;;19.00;61.30;;;;;;4965950;29;20023;-67
2022/10/15 04:07:22;;;;;;;2.45;2.25;;;19.00;61.30;;;;;;4965886;28;20023;-68
2022/10/15 04:09:48;;;;;;;3.00;2.40;;;19.00;61.40;;;;;;4965870;28;20023;-68
2022/10/15 04:12:15;;;;;;;2.30;2.10;;;19.00;61.30;;;;;;4965777;29;20030;-68
2022/10/15 04:14:40;;;;;;;2.40;2.17;;;19.00;61.30;;;;;;4965787;28;20027;-68
2022/10/15 04:17:06;;;;;;;2.05;1.90;;;19.00;61.40;;;;;;4965630;29;20026;-68
2022/10/15 04:19:33;;;;;;;2.83;2.53;;;19.00;61.30;;;;;;4965673;29;20078;-68
2022/10/15 04:21:59;;;;;;;2.83;2.53;;;19.00;61.40;;;;;;4965652;29;20202;-67
2022/10/15 04:24:25;;;;;;;2.88;2.53;;;19.00;61.40;;;;;;4965629;29;20027;-68
2022/10/15 04:26:51;;;;;;;2.40;2.20;;;19.00;61.40;;;;;;4965587;29;20304;-67
2022/10/15 04:29:17;;;;;;;3.95;2.50;;;19.00;61.40;;;;;;4965573;28;20083;-67
2022/10/15 04:31:43;;;;;;;2.05;1.85;;;19.00;61.30;;;;;;4965526;28;20019;-68
2022/10/15 04:34:09;;;;;;;2.40;2.20;;;19.00;61.30;;;;;;4965317;29;20079;-67
2022/10/15 04:36:35;;;;;;;2.47;1.95;;;19.00;61.30;;;;;;4965396;29;20034;-69
2022/10/15 04:39:01;;;;;;;2.33;2.03;;;19.00;61.30;;;;;;4965405;29;20015;-68
2022/10/15 04:41:27;;;;;;;2.53;2.33;;;19.00;61.40;;;;;;4965407;28;20019;-69
2022/10/15 04:43:53;;;;;;;2.50;2.30;;;19.00;61.30;;;;;;4965349;29;20239;-69
2022/10/15 04:46:21;;;;;;;2.40;2.05;;;19.00;61.30;;;;;;4965332;28;20026;-69
2022/10/15 04:48:47;;;;;;;4.38;2.63;;;18.90;61.30;;;;;;4965336;28;20070;-69
2022/10/15 04:51:18;;;;;;;2.35;2.15;;;19.00;61.30;;;;;;4965275;29;20103;-69
2022/10/15 04:53:44;;;;;;;2.70;2.50;;;19.00;61.40;;;;;;4965251;29;20030;-69
2022/10/15 04:56:16;;;;;;;2.65;2.28;;;19.00;61.40;;;;;;4965154;29;20023;-67
2022/10/15 04:58:43;;;;;;;3.10;2.78;;;19.00;61.30;;;;;;4980264;28;20219;-67
2022/10/15 05:01:11;;;;;;;2.50;2.17;;;19.00;61.30;;;;;;4967974;28;20016;-68
2022/10/15 05:03:38;;;;;;;2.55;2.30;;;19.00;61.30;;;;;;4969214;29;20023;-67
2022/10/15 05:06:09;;;;;;;3.00;2.70;;;19.00;61.30;;;;;;4969134;29;20019;-67
2022/10/15 05:08:37;;;;;;;2.63;2.42;;;19.00;61.40;;;;;;4969125;29;20319;-67
2022/10/15 05:11:08;;;;;;;2.60;2.40;;;19.00;61.40;;;;;;4969069;28;20019;-68
2022/10/15 05:13:34;;;;;;;2.92;2.58;;;18.90;61.30;;;;;;4969030;28;20023;-68
2022/10/15 05:16:11;;;;;;;2.65;2.45;;;18.90;61.30;;;;;;4968855;29;20023;-68
2022/10/15 05:18:37;;;;;;;2.42;2.22;;;19.00;61.40;;;;;;4968932;29;20078;-67
2022/10/15 05:21:04;;;;;;;2.80;2.28;;;19.00;61.40;;;;;;4967744;29;20015;-68
2022/10/15 05:23:30;;;;;;;2.50;2.30;;;19.00;61.40;;;;;;4968830;28;20202;-67
2022/10/15 05:25:59;;;;;;;2.20;2.00;;;19.00;61.40;;;;;;4968763;29;20025;-67
2022/10/15 05:28:25;;;;;;;2.65;2.30;;;19.00;61.30;;;;;;4968740;29;20031;-68
2022/10/15 05:30:50;;;;;;;2.53;2.33;;;19.00;61.30;;;;;;4968731;29;20023;-68
2022/10/15 05:33:16;;;;;;;2.97;2.70;;;19.00;61.40;;;;;;4968481;29;20253;-68
2022/10/15 05:35:42;;;;;;;2.80;2.60;;;19.00;61.40;;;;;;4968568;29;20034;-67
2022/10/15 05:38:08;;;;;;;2.95;2.65;;;19.00;61.40;;;;;;4968614;28;20023;-66
2022/10/15 05:40:33;;;;;;;2.78;2.45;;;19.00;61.30;;;;;;4968553;29;20035;-68
2022/10/15 05:42:59;;;;;;;2.70;2.50;;;19.00;61.30;;;;;;4968527;29;20349;-68
2022/10/15 05:45:25;;;;;;;2.53;2.28;;;19.00;61.30;;;;;;4968466;29;20023;-67
2022/10/15 05:47:56;;;;;;;2.33;2.13;;;19.00;61.30;;;;;;4968418;28;20296;-67
2022/10/15 05:50:22;;;;;;;2.88;2.20;;;19.00;61.30;;;;;;4983413;28;20210;-67
2022/10/15 05:52:48;;;;;;;2.38;2.10;;;19.00;61.30;;;;;;4968342;28;20034;-68
2022/10/15 05:55:14;;;;;;;2.35;2.10;;;19.00;61.30;;;;;;4968312;28;20038;-68
2022/10/15 05:57:40;;;;;;;2.53;2.33;;;19.00;61.30;;;;;;4968129;29;20027;-67
2022/10/15 06:00:07;;;;;;;2.30;2.10;;;19.00;61.30;;;;;;4967098;28;20015;-67
2022/10/15 06:02:33;;;;;;;2.80;2.60;;;19.00;61.20;;;;;;4968070;29;20219;-67
2022/10/15 06:04:59;;;;;;;2.60;2.38;;;19.00;61.30;;;;;;4968137;28;20015;-67
2022/10/15 06:07:25;;;;;;;2.70;2.50;;;19.00;61.20;;;;;;4968077;28;20023;-68
2022/10/15 06:09:51;;;;;;;2.45;2.25;;;19.00;61.30;;;;;;4968041;29;20019;-68
2022/10/15 06:12:16;;;;;;;2.70;2.38;;;19.00;61.30;;;;;;4967730;28;20027;-67
2022/10/15 06:14:42;;;;;;;2.50;2.30;;;19.00;61.30;;;;;;4967923;29;20306;-68
2022/10/15 06:17:08;;;;;;;2.97;2.50;;;19.00;61.20;;;;;;4967775;29;20087;-68
2022/10/15 06:19:34;;;;;;;2.53;2.33;;;18.90;61.20;;;;;;4967838;29;20038;-67
2022/10/15 06:21:59;;;;;;;3.15;2.58;;;19.00;61.20;;;;;;4967812;29;20362;-67
2022/10/15 06:24:25;;;;;;;2.33;2.08;;;19.00;61.20;;;;;;4967758;29;20087;-68
2022/10/15 06:26:51;;;;;;;2.45;2.25;;;19.00;61.20;;;;;;4967715;29;20042;-67
2022/10/15 06:29:16;;;;;;;2.53;2.33;;;19.00;61.20;;;;;;4967677;29;20042;-68
2022/10/15 06:31:42;;;;;;;2.20;2.00;;;19.00;61.20;;;;;;4967668;28;20031;-67
2022/10/15 06:34:08;;;;;;;2.22;2.03;;;19.00;61.20;;;;;;4967423;29;20051;-67
2022/10/15 06:36:33;;;;;;;2.63;2.42;;;19.00;61.10;;;;;;4967454;29;20026;-67
2022/10/15 06:38:59;;;;;;;2.30;2.10;;;19.00;61.00;;;;;;4967778;28;20313;-67
2022/10/15 06:41:25;;;;;;;2.95;2.47;;;19.00;61.10;;;;;;4967445;29;20023;-67
2022/10/15 06:43:51;;;;;;;2.30;2.10;;;19.00;61.00;;;;;;4967408;29;20023;-68
2022/10/15 06:46:16;;;;;;;2.78;2.58;;;19.00;61.00;;;;;;4982332;28;20223;-67
2022/10/15 06:48:42;;;;;;;2.00;1.85;;;19.00;61.00;;;;;;4967298;29;20069;-68
2022/10/15 06:51:08;;;;;;;2.25;2.05;;;19.00;61.00;;;;;;4967297;28;20215;-67
2022/10/15 06:53:33;;;;;;;2.58;2.38;;;19.00;61.00;;;;;;4967203;29;20065;-67
2022/10/15 06:56:01;;;;;;;2.50;2.20;;;19.00;61.00;;;;;;4967146;28;20030;-67
2022/10/15 06:58:28;;;;;;;2.60;2.35;;;19.00;61.00;;;;;;4967126;29;20031;-68
2022/10/15 07:01:02;;;;;;;2.50;2.28;;;19.00;60.90;;;;;;4967076;29;20023;-67
2022/10/15 07:03:28;;;;;;;2.60;2.40;;;19.10;61.00;;;;;;4967071;29;20061;-68
2022/10/15 07:05:55;;;;;;;2.40;2.13;;;19.10;61.00;;;;;;4967021;29;20047;-67
2022/10/15 07:08:20;;;;;;;2.47;2.20;;;19.10;60.90;;;;;;4966966;28;20023;-68
2022/10/15 07:10:46;;;;;;;2.83;2.50;;;19.10;60.90;;;;;;4966886;29;20090;-67
2022/10/15 07:13:13;;;;;;;2.05;1.95;;;19.10;60.90;;;;;;4965678;29;20034;-68
2022/10/15 07:15:38;;;;;;;2.75;2.42;;;19.10;60.80;;;;;;4966747;28;20047;-68
2022/10/15 07:18:04;;;;;;;3.35;3.03;;;19.10;60.80;;;;;;4966795;28;20019;-67
2022/10/15 07:20:31;;;;;;;2.15;1.95;;;19.20;60.80;;;;;;4966716;29;20332;-67
2022/10/15 07:22:58;;;;;;;2.17;1.98;;;19.20;60.70;;;;;;4965967;28;20023;-67
2022/10/15 07:25:24;;;;;;;2.40;2.20;;;19.20;60.60;;;;;;4966673;28;20067;-67
2022/10/15 07:27:50;;;;;;;2.67;2.40;;;19.20;60.50;;;;;;4966572;29;20211;-68
2022/10/15 07:30:16;;;;;;;2.30;2.10;;;19.20;60.50;;;;;;4966549;29;20031;-67
2022/10/15 07:32:42;;;;;;;2.80;2.28;;;19.30;60.50;;;;;;4966524;29;20254;-67
2022/10/15 07:35:08;;;;;;;3.15;2.70;;;19.30;60.50;;;;;;4966348;29;20043;-68
2022/10/15 07:37:34;;;;;;;2.30;2.03;;;19.30;60.40;;;;;;4966347;29;20322;-68
2022/10/15 07:39:59;;;;;;;3.53;2.40;;;19.30;60.40;;;;;;4966399;29;20337;-67
2022/10/15 07:42:26;;;;;;;3.20;2.90;;;19.30;60.50;;;;;;4966327;29;20348;-68
2022/10/15 07:44:52;;;;;;;2.42;2.22;;;19.20;60.70;;;;;;4966526;29;20086;-67
2022/10/15 07:47:18;;;;;;;2.60;2.25;;;19.20;60.70;;;;;;4966473;29;20019;-68
2022/10/15 07:49:43;;;;;;;2.53;2.33;;;19.20;60.80;;;;;;4966170;29;20350;-67
2022/10/15 07:52:09;;;;;;;2.60;2.40;;;19.20;60.90;;;;;;4966144;29;20027;-68
2022/10/15 07:54:35;;;;;;;2.58;2.30;;;19.20;60.80;;;;;;4966100;29;20345;-68
2022/10/15 07:57:01;;;;;;;2.33;2.13;;;19.20;60.80;;;;;;4966034;28;20299;-68
2022/10/15 07:59:26;;;;;;;2.72;2.42;;;19.20;60.80;;;;;;4966031;29;20020;-67
2022/10/15 08:01:52;;;;;;;2.00;1.83;;;19.20;60.90;;;;;;4980923;28;20318;-67
2022/10/15 08:04:19;;;;;;;2.50;2.30;;;19.20;60.90;;;;;;4965912;29;20058;-67
2022/10/15 08:06:45;;;;;;;2.35;2.15;;;19.20;60.90;;;;;;4965949;28;20019;-68
2022/10/15 08:09:11;;;;;;;2.58;2.20;;;19.20;60.90;;;;;;4965883;29;20243;-68
2022/10/15 08:11:37;;;;;;;2.63;2.38;;;19.20;60.90;;;;;;4965842;28;20366;-68
2022/10/15 08:14:03;;;;;;;2.95;2.60;;;19.20;60.90;;;;;;4965775;29;20034;-68
2022/10/15 08:16:29;;;;;;;2.70;2.50;;;19.20;60.90;;;;;;4965717;28;20027;-67
2022/10/15 08:18:56;;;;;;;2.60;2.40;;;19.20;60.90;;;;;;4965695;29;20015;-67
2022/10/15 08:21:22;;;;;;;2.55;2.05;;;19.20;60.80;;;;;;4965640;29;20015;-67
2022/10/15 08:23:48;;;;;;;2.92;2.20;;;19.30;60.80;;;;;;4965618;29;20093;-67
2022/10/15 08:26:13;;;;;;;2.45;2.25;;;19.20;60.80;;;;;;4965621;28;20214;-67
2022/10/15 08:28:39;;;;;;;2.72;2.53;;;19.30;60.80;;;;;;4965549;29;20027;-67
2022/10/15 08:31:05;;;;;;;2.63;2.20;;;19.30;60.90;;;;;;4965558;29;20023;-67
2022/10/15 08:33:31;;;;;;;2.75;2.35;;;19.30;60.80;;;;;;4965332;28;20270;-68
2022/10/15 08:35:57;;;;;;;2.47;2.28;;;19.30;60.80;;;;;;4965417;29;20465;-68
2022/10/15 08:38:23;;;;;;;2.90;2.65;;;19.30;60.80;;;;;;4965442;29;20074;-68
2022/10/15 08:40:53;;;;;;;2.55;2.35;;;19.30;60.70;;;;;;4980370;28;20215;-67
2022/10/15 08:43:29;;;;;;;2.63;2.42;;;19.30;60.60;;;;;;4965408;29;20023;-68
2022/10/15 08:46:00;;;;;;;2.45;2.25;;;19.30;60.60;;;;;;4965352;29;20038;-67
2022/10/15 08:48:30;;;;;;;2.38;2.17;;;19.30;60.60;;;;;;4965643;28;20015;-68
2022/10/15 08:51:07;;;;;;;2.83;2.45;;;19.30;60.60;;;;;;4965297;29;20337;-68
2022/10/15 08:53:39;;;;;;;3.00;2.30;;;19.30;60.70;;;;;;4965270;29;20027;-68
2022/10/15 08:56:14;;;;;;;2.30;2.10;;;19.30;60.80;;;;;;4965250;28;20210;-68
2022/10/15 08:58:45;;;;;;;2.13;2.03;;;19.30;60.80;;;;;;4965242;29;20023;-67
2022/10/15 09:01:28;;;;;;;2.90;2.60;;;19.30;60.90;;;;;;4965244;28;20026;-67
2022/10/15 09:04:06;;;;;;;2.47;2.20;;;19.30;60.80;;;;;;4965206;29;20087;-67
2022/10/15 09:06:37;;;;;;;2.40;2.20;;;19.30;60.80;;;;;;4965182;29;20207;-67
2022/10/15 09:09:29;;;;;;;4.00;2.50;;;19.30;60.80;;;;;;4965135;29;20042;-67
2022/10/15 09:12:32;;;;;;;2.53;2.33;;;19.30;60.90;;;;;;4965136;29;20042;-67
2022/10/15 09:14:59;;;;;;;2.72;2.53;;;19.30;60.90;;;;;;4965106;29;20051;-68
2022/10/15 09:17:30;;;;;;;1.88;1.77;;;19.30;61.00;;;;;;4964979;28;20042;-67
2022/10/15 09:19:57;;;;;;;2.78;2.40;;;19.30;61.00;;;;;;4965072;29;20019;-67
2022/10/15 09:22:29;;;;;;;2.15;1.95;;;19.30;60.90;;;;;;4979993;28;20200;-67
2022/10/15 09:24:55;;;;;;;2.53;2.33;;;19.30;60.90;;;;;;4965072;28;20015;-67
2022/10/15 09:27:34;;;;;;;2.28;2.08;;;19.30;60.90;;;;;;4965007;29;20062;-68
2022/10/15 09:30:22;;;;;;;2.60;2.40;;;19.40;60.90;;;;;;4964960;29;20237;-67
2022/10/15 09:32:54;;;;;;;2.83;2.40;;;19.40;60.80;;;;;;4963810;29;20274;-67
2022/10/15 09:35:29;;;;;;;2.53;2.30;;;19.40;60.80;;;;;;4964849;28;20051;-68
2022/10/15 09:38:13;;;;;;;2.63;2.42;;;19.40;60.80;;;;;;4964843;29;20436;-68
2022/10/15 09:41:03;;;;;;;3.10;2.60;;;19.40;60.70;;;;;;4964852;29;20019;-67
2022/10/15 09:43:35;;;;;;;2.50;2.30;;;19.40;60.80;;;;;;4964888;29;20026;-68
2022/10/15 09:46:02;;;;;;;2.35;2.15;;;19.40;60.80;;;;;;4965581;28;20025;-68
2022/10/15 09:48:35;;;;;;;2.40;2.20;;;19.40;60.80;;;;;;4968424;28;20031;-68
2022/10/15 09:51:19;;;;;;;2.30;2.10;;;19.40;60.80;;;;;;4968398;29;20023;-67
2022/10/15 09:53:56;;;;;;;3.10;2.63;;;19.40;60.70;;;;;;4968374;29;20222;-68
2022/10/15 09:56:27;;;;;;;2.83;2.45;;;19.40;60.70;;;;;;4968244;29;20019;-67
2022/10/15 09:58:57;;;;;;;2.30;2.10;;;19.50;60.70;;;;;;4968274;29;20019;-67
2022/10/15 10:01:25;;;;;;;3.67;2.63;;;19.50;60.70;;;;;;4968201;29;20019;-68
2022/10/15 10:03:54;;;;;;;2.83;2.63;;;19.50;60.70;;;;;;4968163;29;20026;-68
2022/10/15 10:06:23;;;;;;;2.30;2.10;;;19.50;60.60;;;;;;4968098;29;20019;-67
2022/10/15 10:08:50;;;;;;;2.92;2.20;;;19.50;60.60;;;;;;4968067;29;20027;-68
2022/10/15 10:11:17;;;;;;;2.47;2.28;;;19.50;60.60;;;;;;4968022;29;20038;-68
2022/10/15 10:13:53;;;;;;;2.45;2.22;;;19.50;60.60;;;;;;4967976;29;20034;-68
2022/10/15 10:16:20;;;;;;;2.88;2.15;;;19.50;60.60;;;;;;4967916;28;20023;-68
2022/10/15 10:19:13;;;;;;;2.35;2.15;;;19.50;61.40;;;;;;4967864;29;20344;-67
2022/10/15 10:21:41;;;;;;;3.15;2.70;;;19.50;60.80;;;;;;4969718;28;20106;-67
2022/10/15 10:24:27;;;;;;;2.35;2.13;;;19.40;60.80;;;;;;4967823;28;20019;-68
2022/10/15 10:26:53;;;;;;;2.47;2.28;;;19.40;60.90;;;;;;4967801;28;20023;-67
2022/10/15 10:29:21;;;;;;;2.45;2.25;;;19.50;60.90;;;;;;4967720;29;20421;-68
2022/10/15 10:31:50;;;;;;;2.37;2.17;;;19.50;60.80;;;;;;4982697;28;20215;-68
2022/10/15 10:34:26;;;;;;;2.53;2.33;;;19.50;60.70;;;;;;4967452;28;20050;-68
2022/10/15 10:36:53;;;;;;;2.45;2.25;;;19.50;60.60;;;;;;4967177;28;20026;-68
2022/10/15 10:39:19;;;;;;;2.70;2.15;;;19.50;60.70;;;;;;4966415;29;20023;-68
2022/10/15 10:41:59;;;;;;;2.45;2.25;;;19.50;60.70;;;;;;4967479;29;20015;-67
2022/10/15 10:44:30;;;;;;;2.42;2.20;;;19.50;60.70;;;;;;4967438;29;20079;-68
2022/10/15 10:47:12;;;;;;;2.10;1.90;;;19.50;60.80;;;;;;4967386;29;20121;-67
2022/10/15 10:49:42;;;;;;;2.33;2.13;;;19.50;60.80;;;;;;4967367;29;20302;-68
2022/10/15 10:52:27;;;;;;;2.20;2.00;;;19.50;60.90;;;;;;4967311;28;20042;-67
2022/10/15 10:54:59;;;;;;;3.72;2.53;;;19.50;60.90;;;;;;4967230;29;20074;-68
2022/10/15 10:57:43;;;;;;;2.40;2.20;;;19.50;60.90;;;;;;4966176;28;20087;-68
2022/10/15 11:00:19;;;;;;;2.03;1.83;;;19.50;60.90;;;;;;4967168;29;20326;-67
2022/10/15 11:02:46;;;;;;;2.70;2.50;;;19.50;60.80;;;;;;4967117;29;20330;-68
2022/10/15 11:05:12;;;;;;;2.47;2.28;;;19.50;60.90;;;;;;4967040;29;20030;-68
2022/10/15 11:08:05;;;;;;;2.40;2.20;;;19.50;60.90;;;;;;4967016;28;20022;-68
2022/10/15 11:10:46;;;;;;;2.47;2.22;;;19.50;60.90;;;;;;4966979;29;20048;-67
2022/10/15 11:13:45;;;;;;;2.20;2.00;;;19.50;61.00;;;;;;4966939;28;20015;-67
2022/10/15 11:16:29;;;;;;;2.35;2.15;;;19.50;61.00;;;;;;4966834;28;20042;-68
2022/10/15 11:19:06;;;;;;;2.17;2.03;;;19.50;61.00;;;;;;4966805;29;20082;-68
2022/10/15 11:21:58;;;;;;;2.42;2.17;;;19.40;60.90;;;;;;4966839;29;20019;-67
2022/10/15 11:24:45;;;;;;;2.35;2.15;;;19.40;61.00;;;;;;4965163;29;20200;-68
2022/10/15 11:27:17;;;;;;;2.63;2.20;;;19.40;61.00;;;;;;4966678;29;20029;-68
2022/10/15 11:30:15;;;;;;;2.40;2.20;;;19.40;61.00;;;;;;4966571;29;20430;-68
2022/10/15 11:33:07;;;;;;;2.65;2.45;;;19.50;61.10;;;;;;4966591;29;20030;-68
2022/10/15 11:35:41;;;;;;;2.38;2.17;;;19.40;61.00;;;;;;4965360;28;20051;-68
2022/10/15 11:38:32;;;;;;;2.00;1.90;;;19.40;61.00;;;;;;4966392;29;20038;-67
2022/10/15 11:41:19;;;;;;;2.47;2.22;;;19.40;61.00;;;;;;4966458;28;20059;-68
2022/10/15 11:44:12;;;;;;;2.42;2.22;;;19.50;61.10;;;;;;4966328;29;20019;-68
2022/10/15 11:47:04;;;;;;;2.45;2.25;;;19.40;61.10;;;;;;4966344;28;20066;-67
2022/10/15 11:49:33;;;;;;;2.53;2.33;;;19.50;61.10;;;;;;4966816;28;20378;-67
2022/10/15 11:52:15;;;;;;;;;;;19.40;61.00;;;;;;4966592;29;20070;-68
2022/10/15 11:55:13;;;;;;;3.25;2.78;;;19.40;61.00;;;;;;4966195;28;20118;-68
2022/10/15 11:57:40;;;;;;;2.15;1.90;;;19.40;61.10;;;;;;4966020;29;20034;-68
2022/10/15 12:00:29;;;;;;;2.53;2.25;;;19.40;61.10;;;;;;4966085;29;20091;-67
2022/10/15 12:02:58;;;;;;;2.47;2.28;;;19.40;61.10;;;;;;4965996;29;20015;-68
2022/10/15 12:05:32;;;;;;;2.20;2.00;;;19.40;61.20;;;;;;4965960;29;20023;-67
2022/10/15 12:07:59;;;;;;;3.15;2.70;;;19.40;61.20;;;;;;4965996;28;20366;-67
2022/10/15 12:10:33;;;;;;;2.58;2.30;;;19.40;61.20;;;;;;4965635;28;20030;-68
2022/10/15 12:13:17;;;;;;;2.15;1.95;;;19.40;61.20;;;;;;4965868;29;20058;-68
2022/10/15 12:15:57;;;;;;;2.20;2.00;;;19.40;61.20;;;;;;4965784;29;20046;-68
2022/10/15 12:18:35;;;;;;;2.30;2.10;;;19.40;61.20;;;;;;4964647;28;20315;-67
2022/10/15 12:21:01;;;;;;;2.75;2.55;;;19.40;61.20;;;;;;4965762;29;20299;-67
2022/10/15 12:23:36;;;;;;;2.42;2.20;;;19.40;61.20;;;;;;4965637;29;20030;-68
2022/10/15 12:26:28;;;;;;;2.70;2.25;;;19.40;61.20;;;;;;4965630;28;20026;-68
2022/10/15 12:28:56;;;;;;;2.50;2.30;;;19.40;61.20;;;;;;4965610;28;20070;-68
2022/10/15 12:31:23;;;;;;;2.90;2.50;;;19.40;61.20;;;;;;4965588;29;20092;-67
2022/10/15 12:33:56;;;;;;;2.50;2.30;;;19.40;61.20;;;;;;4965283;29;20031;-68
2022/10/15 12:36:29;;;;;;;2.03;1.83;;;19.40;61.20;;;;;;4965402;29;20035;-67
2022/10/15 12:38:59;;;;;;;2.45;2.25;;;19.40;61.30;;;;;;4965494;29;20295;-68
2022/10/15 12:41:46;;;;;;;3.05;2.35;;;19.40;61.30;;;;;;4965447;29;20035;-68
2022/10/15 12:44:33;;;;;;;2.33;2.13;;;19.40;61.20;;;;;;4965374;29;20059;-67
2022/10/15 12:47:00;;;;;;;2.33;2.13;;;19.40;61.30;;;;;;4965341;29;20044;-67
2022/10/15 12:49:25;;;;;;;2.30;2.10;;;19.40;61.30;;;;;;4965314;29;20023;-67
2022/10/15 12:51:52;;;;;;;2.33;2.13;;;19.40;61.30;;;;;;4965343;28;20066;-68
2022/10/15 12:54:33;;;;;;;2.25;2.05;;;19.40;61.30;;;;;;4965308;28;20039;-67
2022/10/15 12:57:00;;;;;;;2.38;2.17;;;19.30;61.20;;;;;;4965203;28;20211;-66
2022/10/15 12:59:42;;;;;;;1.75;1.65;;;19.40;61.30;;;;;;4965212;29;20019;-68
2022/10/15 13:02:38;;;;;;;2.20;2.00;;;19.40;61.30;;;;;;4965254;29;20024;-68
2022/10/15 13:05:07;;;;;;;2.60;2.40;;;19.40;61.30;;;;;;4965205;29;20023;-67
2022/10/15 13:07:39;;;;;;;2.08;1.88;;;19.30;61.30;;;;;;4965195;29;20265;-67